createdAt,value
2018-05-26T00:02:04.688Z,17.10
2018-05-26T00:04:34.355Z,17.00
2018-05-26T00:07:04.050Z,17.00
2018-05-26T00:09:33.721Z,17.00
2018-05-26T00:12:03.415Z,17.00
2018-05-26T00:14:33.096Z,17.00
2018-05-26T00:17:02.804Z,16.90
2018-05-26T00:19:33.265Z,16.90
2018-05-26T00:22:02.979Z,16.80
2018-05-26T00:24:32.667Z,16.80
2018-05-26T00:27:03.151Z,16.80
2018-05-26T00:29:32.847Z,16.80
2018-05-26T00:32:02.566Z,16.80
2018-05-26T00:34:32.270Z,16.70
2018-05-26T00:37:01.978Z,16.70
2018-05-26T00:39:31.691Z,16.60
2018-05-26T00:42:01.408Z,16.60
2018-05-26T00:44:31.116Z,16.70
2018-05-26T00:47:00.842Z,16.70
2018-05-26T00:49:31.335Z,16.60
2018-05-26T00:52:01.042Z,16.60
2018-05-26T00:54:30.762Z,16.70
2018-05-26T00:57:00.462Z,16.70
2018-05-26T00:59:30.475Z,16.70
2018-05-26T01:02:00.186Z,16.50
2018-05-26T01:04:30.680Z,16.50
2018-05-26T01:07:00.391Z,16.50
2018-05-26T01:09:30.111Z,16.50
2018-05-26T01:11:59.818Z,16.40
2018-05-26T01:14:29.556Z,16.40
2018-05-26T01:16:59.267Z,16.40
2018-05-26T01:19:28.996Z,16.40
2018-05-26T01:21:58.703Z,16.40
2018-05-26T01:24:28.430Z,16.40
2018-05-26T01:26:58.902Z,16.30
2018-05-26T01:29:28.622Z,16.30
2018-05-26T01:31:58.330Z,16.30
2018-05-26T01:34:28.054Z,16.30
2018-05-26T01:36:57.763Z,16.20
2018-05-26T01:39:27.495Z,16.20
2018-05-26T01:41:57.199Z,16.20
2018-05-26T01:44:26.927Z,16.20
2018-05-26T01:46:57.400Z,16.00
2018-05-26T01:49:27.135Z,15.90
2018-05-26T01:51:56.841Z,16.00
2018-05-26T01:54:26.571Z,15.80
2018-05-26T01:56:56.277Z,15.80
2018-05-26T01:59:26.011Z,15.80
2018-05-26T02:01:56.481Z,15.90
2018-05-26T02:04:26.208Z,15.90
2018-05-26T02:06:55.919Z,16.00
2018-05-26T02:09:25.643Z,15.90
2018-05-26T02:11:55.354Z,15.90
2018-05-26T02:14:25.091Z,15.90
2018-05-26T02:16:54.803Z,15.90
2018-05-26T02:19:24.538Z,15.90
2018-05-26T02:21:54.251Z,15.80
2018-05-26T02:24:23.983Z,15.80
2018-05-26T02:26:53.679Z,15.80
2018-05-26T02:29:23.406Z,15.80
2018-05-26T02:31:53.124Z,15.80
2018-05-26T02:34:22.842Z,15.70
2018-05-26T02:36:52.215Z,15.70
2018-05-26T02:39:21.938Z,15.70
2018-05-26T02:41:51.647Z,15.70
2018-05-26T02:44:21.383Z,15.70
2018-05-26T02:46:51.866Z,15.60
2018-05-26T02:49:21.591Z,15.60
2018-05-26T02:51:51.290Z,15.70
2018-05-26T02:54:21.783Z,15.60
2018-05-26T02:56:51.151Z,15.60
2018-05-26T02:59:20.876Z,15.60
2018-05-26T03:01:51.355Z,15.50
2018-05-26T03:04:27.206Z,15.50
2018-05-26T03:07:02.355Z,15.40
2018-05-26T03:09:37.443Z,15.50
2018-05-26T03:12:12.543Z,15.50
2018-05-26T03:14:47.503Z,15.40
2018-05-26T03:17:20.207Z,15.40
2018-05-26T03:19:49.941Z,15.30
2018-05-26T03:22:19.655Z,15.40
2018-05-26T03:24:49.398Z,15.30
2018-05-26T03:27:19.101Z,15.40
2018-05-26T03:29:49.639Z,15.50
2018-05-26T03:32:19.356Z,15.50
2018-05-26T03:34:49.846Z,15.60
2018-05-26T03:37:19.555Z,15.50
2018-05-26T03:39:49.282Z,15.60
2018-05-26T03:42:19.015Z,15.60
2018-05-26T03:44:48.722Z,15.60
2018-05-26T03:47:19.209Z,15.70
2018-05-26T03:49:48.946Z,15.60
2018-05-26T03:52:18.656Z,15.70
2018-05-26T03:58:00.866Z,15.50
2018-05-26T04:00:30.571Z,15.50
2018-05-26T04:03:00.263Z,15.60
2018-05-26T04:05:29.979Z,15.60
2018-05-26T04:07:59.685Z,15.60
2018-05-26T04:10:29.395Z,15.60
2018-05-26T04:12:59.078Z,15.60
2018-05-26T04:15:35.267Z,15.70
2018-05-26T04:18:04.618Z,15.70
2018-05-26T04:20:34.778Z,15.70
2018-05-26T04:23:04.478Z,15.70
2018-05-26T04:25:34.204Z,15.80
2018-05-26T04:28:03.894Z,15.80
2018-05-26T04:30:33.636Z,15.90
2018-05-26T04:33:03.340Z,15.90
2018-05-26T04:35:33.071Z,16.00
2018-05-26T04:38:02.782Z,16.10
2018-05-26T04:40:32.506Z,16.20
2018-05-26T04:43:02.981Z,16.20
2018-05-26T04:45:34.458Z,16.20
2018-05-26T04:48:04.163Z,16.20
2018-05-26T04:50:33.894Z,16.30
2018-05-26T04:53:03.600Z,16.30
2018-05-26T04:55:33.327Z,16.40
2018-05-26T04:58:03.782Z,16.50
2018-05-26T05:00:34.265Z,16.60
2018-05-26T05:03:03.950Z,16.50
2018-05-26T05:05:33.723Z,16.70
2018-05-26T05:08:04.183Z,16.80
2018-05-26T05:10:33.890Z,16.80
2018-05-26T05:13:03.558Z,16.80
2018-05-26T05:15:35.034Z,16.90
2018-05-26T05:18:04.706Z,16.90
2018-05-26T05:20:34.398Z,17.00
2018-05-26T05:23:04.098Z,17.10
2018-05-26T05:25:33.771Z,17.20
2018-05-26T05:28:03.467Z,17.30
2018-05-26T05:30:33.915Z,17.50
2018-05-26T05:33:03.611Z,17.50
2018-05-26T05:35:33.287Z,17.70
2018-05-26T05:38:02.984Z,17.80
2018-05-26T05:40:32.662Z,17.90
2018-05-26T05:43:02.385Z,18.10
2018-05-26T05:45:37.595Z,18.20
2018-05-26T05:48:07.295Z,18.50
2018-05-26T05:50:36.983Z,18.70
2018-05-26T05:53:07.451Z,19.10
2018-05-26T05:55:37.135Z,19.10
2018-05-26T05:58:07.582Z,19.80
2018-05-26T06:00:37.644Z,19.80
2018-05-26T06:03:07.842Z,20.10
2018-05-26T06:05:37.520Z,20.40
2018-05-26T06:08:07.227Z,20.70
2018-05-26T06:10:36.911Z,20.90
2018-05-26T06:13:06.591Z,21.00
2018-05-26T06:15:42.513Z,21.10
2018-05-26T06:18:12.204Z,21.10
2018-05-26T06:20:42.651Z,21.20
2018-05-26T06:23:12.342Z,21.20
2018-05-26T06:25:42.775Z,21.40
2018-05-26T06:28:12.482Z,21.30
2018-05-26T06:30:42.163Z,21.50
2018-05-26T06:33:11.858Z,21.60
2018-05-26T06:35:41.542Z,21.80
2018-05-26T06:38:11.254Z,22.10
2018-05-26T06:40:41.721Z,22.60
2018-05-26T06:43:12.182Z,22.70
2018-05-26T06:45:42.603Z,22.80
2018-05-26T06:48:12.307Z,22.80
2018-05-26T06:50:42.016Z,22.90
2018-05-26T06:53:12.667Z,23.10
2018-05-26T06:55:42.635Z,23.10
2018-05-26T06:58:12.368Z,23.10
2018-05-26T07:00:42.054Z,23.20
2018-05-26T07:03:12.887Z,23.40
2018-05-26T07:05:42.740Z,23.40
2018-05-26T07:08:12.213Z,23.20
2018-05-26T07:10:42.659Z,23.40
2018-05-26T07:13:12.379Z,23.30
2018-05-26T07:15:42.079Z,23.50
2018-05-26T07:18:11.915Z,23.50
2018-05-26T07:20:41.654Z,23.50
2018-05-26T07:23:11.518Z,23.40
2018-05-26T07:25:41.259Z,23.50
2018-05-26T07:28:11.203Z,23.40
2018-05-26T07:30:41.071Z,23.50
2018-05-26T07:33:10.998Z,23.60
2018-05-26T07:35:40.691Z,23.80
2018-05-26T07:38:11.538Z,23.80
2018-05-26T07:40:41.242Z,23.80
2018-05-26T07:43:11.270Z,23.90
2018-05-26T07:45:40.963Z,24.00
2018-05-26T07:48:10.674Z,24.00
2018-05-26T07:50:40.718Z,23.90
2018-05-26T07:53:10.215Z,23.90
2018-05-26T07:55:40.063Z,23.90
2018-05-26T07:58:10.535Z,23.70
2018-05-26T08:00:40.231Z,23.70
2018-05-26T08:03:09.931Z,23.80
2018-05-26T08:05:39.618Z,23.90
2018-05-26T08:08:10.101Z,24.00
2018-05-26T08:10:39.787Z,23.90
2018-05-26T08:13:09.496Z,24.00
2018-05-26T08:15:44.759Z,24.10
2018-05-26T08:18:14.464Z,24.30
2018-05-26T08:20:44.142Z,24.40
2018-05-26T08:23:13.866Z,24.30
2018-05-26T08:25:43.544Z,24.10
2018-05-26T08:28:13.843Z,23.90
2018-05-26T08:30:43.531Z,23.80
2018-05-26T08:33:13.244Z,23.80
2018-05-26T08:35:42.939Z,23.90
2018-05-26T08:38:12.657Z,23.90
2018-05-26T08:40:42.358Z,24.10
2018-05-26T08:43:12.047Z,24.10
2018-05-26T08:45:41.755Z,24.20
2018-05-26T08:48:11.445Z,24.30
2018-05-26T08:50:41.924Z,24.30
2018-05-26T08:53:11.601Z,24.20
2018-05-26T08:55:41.312Z,24.30
2018-05-26T08:58:10.996Z,24.20
2018-05-26T09:00:41.470Z,24.30
2018-05-26T09:03:11.447Z,24.20
2018-05-26T09:05:41.926Z,24.30
2018-05-26T09:08:11.607Z,24.20
2018-05-26T09:10:41.308Z,24.30
2018-05-26T09:13:11.003Z,24.30
2018-05-26T09:15:46.359Z,24.40
2018-05-26T09:18:16.034Z,24.20
2018-05-26T09:20:45.747Z,24.30
2018-05-26T09:23:15.435Z,24.30
2018-05-26T09:25:45.163Z,24.20
2018-05-26T09:28:14.855Z,24.30
2018-05-26T09:30:44.569Z,24.20
2018-05-26T09:33:14.255Z,24.10
2018-05-26T09:35:43.968Z,24.20
2018-05-26T09:38:13.655Z,24.40
2018-05-26T09:40:43.364Z,24.40
2018-05-26T09:43:13.047Z,24.40
2018-05-26T09:45:43.527Z,24.50
2018-05-26T09:48:14.444Z,24.60
2018-05-26T09:50:44.151Z,24.50
2018-05-26T09:53:13.835Z,24.70
2018-05-26T09:55:44.468Z,24.90
2018-05-26T09:58:14.282Z,24.70
2018-05-26T10:00:44.003Z,24.80
2018-05-26T10:03:13.695Z,24.80
2018-05-26T10:05:43.430Z,24.90
2018-05-26T10:08:13.115Z,25.00
2018-05-26T10:10:43.583Z,25.20
2018-05-26T10:13:13.271Z,25.20
2018-05-26T10:15:42.981Z,25.30
2018-05-26T10:18:12.872Z,25.30
2018-05-26T10:20:43.347Z,25.50
2018-05-26T10:23:13.046Z,25.40
2018-05-26T10:25:42.744Z,25.60
2018-05-26T10:28:12.430Z,25.50
2018-05-26T10:30:42.906Z,25.40
2018-05-26T10:33:12.604Z,25.30
2018-05-26T10:35:42.308Z,25.30
2018-05-26T10:38:12.020Z,25.40
2018-05-26T10:40:41.911Z,25.30
2018-05-26T10:43:11.612Z,25.30
2018-05-26T10:45:40.683Z,25.10
2018-05-26T10:48:10.379Z,25.00
2018-05-26T10:50:40.083Z,25.10
2018-05-26T10:53:09.785Z,25.20
2018-05-26T10:55:39.495Z,25.20
2018-05-26T10:58:09.195Z,25.10
2018-05-26T11:00:38.903Z,25.20
2018-05-26T11:03:08.584Z,25.40
2018-05-26T11:05:38.292Z,25.50
2018-05-26T11:08:07.986Z,25.60
2018-05-26T11:10:38.463Z,25.60
2018-05-26T11:13:08.151Z,25.50
2018-05-26T11:15:42.471Z,25.30
2018-05-26T11:18:12.751Z,25.20
2018-05-26T11:20:43.236Z,25.30
2018-05-26T11:23:12.951Z,25.20
2018-05-26T11:25:42.676Z,25.30
2018-05-26T11:28:12.543Z,25.40
2018-05-26T11:30:42.251Z,25.60
2018-05-26T11:33:12.032Z,25.70
2018-05-26T11:35:42.795Z,25.70
2018-05-26T11:38:13.943Z,25.70
2018-05-26T11:40:44.875Z,25.60
2018-05-26T11:43:16.393Z,25.60
2018-05-26T11:45:52.997Z,25.60
2018-05-26T11:51:12.799Z,25.50
2018-05-26T11:53:43.321Z,25.30
2018-05-26T11:56:17.899Z,25.40
2018-05-26T11:58:51.274Z,25.40
2018-05-26T12:01:21.534Z,25.50
2018-05-26T12:03:51.274Z,25.60
2018-05-26T12:06:21.402Z,25.70
2018-05-26T12:08:51.082Z,25.80
2018-05-26T12:11:21.571Z,25.80
2018-05-26T12:13:51.295Z,25.70
2018-05-26T12:16:21.859Z,25.80
2018-05-26T12:18:52.429Z,25.90
2018-05-26T12:21:43.487Z,25.80
2018-05-26T12:24:14.553Z,25.90
2018-05-26T12:26:48.000Z,26.00
2018-05-26T12:29:19.039Z,26.10
2018-05-26T12:31:50.919Z,26.00
2018-05-26T12:34:20.684Z,26.10
2018-05-26T12:36:51.991Z,26.00
2018-05-26T12:39:27.841Z,26.10
2018-05-26T12:41:57.803Z,26.00
2018-05-26T12:44:29.958Z,26.00
2018-05-26T12:47:01.053Z,25.90
2018-05-26T12:49:32.939Z,25.90
2018-05-26T12:52:03.586Z,25.80
2018-05-26T12:54:34.241Z,25.80
2018-05-26T12:57:05.935Z,25.70
2018-05-26T12:59:36.393Z,25.80
2018-05-26T13:02:06.102Z,25.70
2018-05-26T13:04:35.783Z,25.80
2018-05-26T13:07:06.348Z,25.60
2018-05-26T13:09:36.096Z,25.60
2018-05-26T13:12:05.835Z,25.40
2018-05-26T13:14:36.298Z,25.60
2018-05-26T13:17:06.080Z,25.50
2018-05-26T13:19:36.532Z,25.60
2018-05-26T13:22:06.867Z,25.60
2018-05-26T13:24:36.551Z,25.70
2018-05-26T13:27:06.255Z,25.70
2018-05-26T13:29:36.006Z,25.70
2018-05-26T13:32:06.030Z,25.80
2018-05-26T13:34:35.731Z,25.70
2018-05-26T13:37:05.415Z,25.70
2018-05-26T13:39:35.132Z,25.70
2018-05-26T13:42:04.811Z,25.70
2018-05-26T13:44:35.297Z,25.70
2018-05-26T13:47:05.004Z,25.70
2018-05-26T13:49:34.830Z,25.70
2018-05-26T13:52:04.248Z,25.70
2018-05-26T13:54:34.265Z,25.70
2018-05-26T13:57:04.222Z,25.80
2018-05-26T13:59:34.362Z,25.70
2018-05-26T14:02:04.169Z,25.80
2018-05-26T14:04:34.179Z,25.60
2018-05-26T14:07:03.543Z,25.50
2018-05-26T14:09:34.116Z,25.60
2018-05-26T14:12:03.891Z,25.50
2018-05-26T14:14:33.754Z,25.60
2018-05-26T14:17:03.535Z,25.60
2018-05-26T14:19:33.656Z,25.60
2018-05-26T14:22:03.355Z,25.70
2018-05-26T14:24:33.064Z,25.60
2018-05-26T14:27:02.751Z,25.60
2018-05-26T14:29:33.264Z,25.50
2018-05-26T14:32:02.943Z,25.40
2018-05-26T14:34:32.622Z,25.40
2018-05-26T14:37:03.061Z,25.30
2018-05-26T14:39:32.748Z,25.30
2018-05-26T14:42:03.189Z,25.50
2018-05-26T14:44:32.954Z,25.40
2018-05-26T14:47:02.643Z,25.40
2018-05-26T14:49:32.327Z,25.40
2018-05-26T14:52:02.007Z,25.40
2018-05-26T14:54:31.699Z,25.30
2018-05-26T14:57:01.407Z,25.30
2018-05-26T14:59:31.102Z,25.30
2018-05-26T15:02:00.786Z,25.30
2018-05-26T15:04:30.484Z,25.30
2018-05-26T15:07:00.171Z,25.30
2018-05-26T15:09:30.191Z,25.40
2018-05-26T15:12:00.650Z,25.50
2018-05-26T15:14:30.415Z,25.40
2018-05-26T15:17:00.107Z,25.50
2018-05-26T15:19:29.819Z,25.60
2018-05-26T15:21:59.487Z,25.60
2018-05-26T15:24:29.220Z,25.50
2018-05-26T15:27:00.073Z,25.40
2018-05-26T15:29:29.791Z,25.40
2018-05-26T15:31:59.458Z,25.50
2018-05-26T15:34:29.174Z,25.50
2018-05-26T15:36:58.853Z,25.50
2018-05-26T15:39:28.562Z,25.50
2018-05-26T15:41:58.259Z,25.60
2018-05-26T15:44:27.975Z,25.60
2018-05-26T15:46:58.398Z,25.60
2018-05-26T15:49:28.115Z,25.50
2018-05-26T15:51:57.783Z,25.60
2018-05-26T15:54:27.486Z,25.60
2018-05-26T15:56:57.156Z,25.50
2018-05-26T15:59:26.847Z,25.50
2018-05-26T16:01:56.526Z,25.40
2018-05-26T16:04:26.212Z,25.40
2018-05-26T16:06:55.942Z,25.40
2018-05-26T16:09:26.510Z,25.40
2018-05-26T16:11:56.270Z,25.30
2018-05-26T16:14:26.070Z,25.30
2018-05-26T16:16:55.823Z,25.20
2018-05-26T16:19:26.591Z,25.20
2018-05-26T16:21:56.304Z,25.10
2018-05-26T16:24:26.763Z,25.10
2018-05-26T16:26:56.462Z,25.10
2018-05-26T16:29:27.305Z,25.10
2018-05-26T16:31:57.188Z,25.00
2018-05-26T16:34:26.854Z,24.90
2018-05-26T16:36:56.545Z,24.90
2018-05-26T16:39:26.215Z,24.90
2018-05-26T16:41:55.907Z,24.90
2018-05-26T16:44:25.598Z,24.90
2018-05-26T16:46:56.271Z,24.70
2018-05-26T16:49:25.954Z,24.70
2018-05-26T16:51:55.659Z,24.70
2018-05-26T16:54:25.346Z,24.70
2018-05-26T16:56:55.821Z,24.60
2018-05-26T16:59:25.507Z,24.60
2018-05-26T17:01:55.221Z,24.60
2018-05-26T17:04:24.911Z,24.60
2018-05-26T17:06:54.619Z,24.60
2018-05-26T17:09:24.338Z,24.60
2018-05-26T17:11:54.218Z,24.60
2018-05-26T17:14:23.896Z,24.50
2018-05-26T17:16:53.599Z,24.50
2018-05-26T17:19:23.281Z,24.40
2018-05-26T17:21:53.003Z,24.50
2018-05-26T17:24:22.710Z,24.40
2018-05-26T17:26:52.390Z,24.40
2018-05-26T17:29:22.846Z,24.40
2018-05-26T17:31:52.546Z,24.40
2018-05-26T17:34:22.231Z,24.40
2018-05-26T17:36:52.718Z,24.30
2018-05-26T17:39:22.408Z,24.30
2018-05-26T17:41:52.114Z,24.30
2018-05-26T17:44:21.831Z,24.20
2018-05-26T17:46:51.536Z,24.20
2018-05-26T17:49:21.214Z,24.10
2018-05-26T17:51:51.695Z,24.10
2018-05-26T17:54:21.383Z,24.00
2018-05-26T17:56:51.083Z,24.00
2018-05-26T17:59:20.763Z,24.00
2018-05-26T18:01:50.452Z,23.90
2018-05-26T18:04:20.143Z,23.90
2018-05-26T18:06:49.865Z,23.80
2018-05-26T18:09:19.534Z,23.80
2018-05-26T18:11:49.243Z,23.80
2018-05-26T18:14:19.682Z,23.70
2018-05-26T18:16:49.359Z,23.70
2018-05-26T18:19:19.815Z,23.60
2018-05-26T18:21:49.495Z,23.60
2018-05-26T18:24:19.199Z,23.60
2018-05-26T18:26:49.327Z,23.40
2018-05-26T18:29:19.335Z,23.40
2018-05-26T18:31:49.773Z,23.30
2018-05-26T18:34:19.743Z,23.20
2018-05-26T18:36:49.420Z,23.20
2018-05-26T18:39:19.118Z,23.10
2018-05-26T18:41:48.816Z,23.10
2018-05-26T18:44:18.541Z,23.00
2018-05-26T18:46:48.223Z,22.90
2018-05-26T18:49:18.686Z,22.80
2018-05-26T18:51:48.359Z,22.70
2018-05-26T18:54:19.141Z,22.70
2018-05-26T18:56:48.815Z,22.60
2018-05-26T18:59:18.532Z,22.60
2018-05-26T19:01:48.204Z,22.50
2018-05-26T19:04:17.898Z,22.50
2018-05-26T19:06:47.576Z,22.40
2018-05-26T19:09:17.307Z,22.30
2018-05-26T19:11:47.608Z,22.20
2018-05-26T19:14:17.297Z,22.20
2018-05-26T19:16:46.982Z,22.10
2018-05-26T19:19:17.442Z,22.10
2018-05-26T19:21:47.719Z,22.00
2018-05-26T19:24:17.424Z,22.00
2018-05-26T19:26:47.103Z,22.00
2018-05-26T19:29:16.795Z,22.00
2018-05-26T19:31:47.523Z,21.90
2018-05-26T19:34:17.222Z,21.80
2018-05-26T19:36:46.895Z,21.80
2018-05-26T19:39:16.876Z,21.70
2018-05-26T19:41:46.546Z,21.60
2018-05-26T19:44:17.015Z,21.50
2018-05-26T19:46:46.687Z,21.40
2018-05-26T19:49:16.393Z,21.40
2018-05-26T19:51:46.835Z,21.30
2018-05-26T19:54:16.551Z,21.20
2018-05-26T19:56:46.223Z,21.20
2018-05-26T19:59:16.695Z,21.10
2018-05-26T20:01:46.380Z,21.10
2018-05-26T20:04:16.083Z,21.10
2018-05-26T20:06:46.528Z,20.90
2018-05-26T20:09:16.231Z,20.90
2018-05-26T20:11:45.932Z,20.90
2018-05-26T20:14:15.634Z,20.90
2018-05-26T20:16:46.071Z,20.90
2018-05-26T20:19:15.803Z,20.80
2018-05-26T20:21:46.473Z,20.80
2018-05-26T20:24:16.178Z,20.80
2018-05-26T20:26:45.860Z,20.80
2018-05-26T20:29:15.555Z,20.60
2018-05-26T20:31:45.259Z,20.50
2018-05-26T20:34:14.967Z,20.50
2018-05-26T20:36:44.660Z,20.50
2018-05-26T20:39:15.127Z,20.50
2018-05-26T20:41:44.806Z,20.50
2018-05-26T20:44:14.503Z,20.50
2018-05-26T20:46:44.951Z,20.40
2018-05-26T20:49:14.651Z,20.40
2018-05-26T20:51:44.342Z,20.50
2018-05-26T20:54:19.339Z,20.40
2018-05-26T20:56:50.610Z,20.30
2018-05-26T20:59:20.319Z,20.40
2018-05-26T21:01:50.002Z,20.30
2018-05-26T21:04:19.741Z,20.20
2018-05-26T21:06:49.421Z,20.20
2018-05-26T21:09:19.340Z,20.10
2018-05-26T21:11:49.222Z,20.10
2018-05-26T21:14:18.927Z,20.10
2018-05-26T21:16:48.658Z,20.00
2018-05-26T21:19:18.335Z,20.00
2018-05-26T21:21:48.044Z,19.90
2018-05-26T21:24:17.803Z,19.80
2018-05-26T21:26:47.631Z,19.80
2018-05-26T21:29:17.315Z,19.70
2018-05-26T21:31:47.015Z,19.70
2018-05-26T21:34:16.707Z,19.60
2018-05-26T21:36:46.403Z,19.60
2018-05-26T21:39:16.131Z,19.60
2018-05-26T21:41:46.764Z,19.50
2018-05-26T21:44:16.435Z,19.50
2018-05-26T21:46:46.914Z,19.40
2018-05-26T21:49:16.594Z,19.30
2018-05-26T21:51:46.291Z,19.30
2018-05-26T21:54:16.735Z,19.20
2018-05-26T21:56:46.433Z,19.10
2018-05-26T21:59:16.107Z,19.10
2018-05-26T22:01:45.818Z,19.00
2018-05-26T22:04:15.514Z,19.00
2018-05-26T22:06:45.235Z,18.90
2018-05-26T22:09:14.914Z,18.90
2018-05-26T22:11:44.607Z,18.80
2018-05-26T22:14:14.279Z,18.80
2018-05-26T22:16:44.738Z,18.70
2018-05-26T22:19:14.118Z,18.70
2018-05-26T22:21:44.595Z,18.70
2018-05-26T22:24:14.279Z,18.70
2018-05-26T22:26:43.979Z,18.70
2018-05-26T22:29:13.653Z,18.70
2018-05-26T22:31:43.567Z,18.60
2018-05-26T22:34:13.250Z,18.60
2018-05-26T22:36:42.955Z,18.50
2018-05-26T22:39:12.643Z,18.50
2018-05-26T22:41:42.346Z,18.50
2018-05-26T22:44:12.031Z,18.50
2018-05-26T22:46:42.786Z,18.50
2018-05-26T22:49:12.474Z,18.40
2018-05-26T22:51:42.932Z,18.50
2018-05-26T22:54:12.611Z,18.40
2018-05-26T22:56:42.299Z,18.40
2018-05-26T22:59:11.987Z,18.40
2018-05-26T23:01:41.687Z,18.30
2018-05-26T23:04:11.380Z,18.30
2018-05-26T23:06:41.095Z,18.30
2018-05-26T23:09:10.800Z,18.30
2018-05-26T23:11:40.511Z,18.20
2018-05-26T23:14:10.185Z,18.20
2018-05-26T23:16:39.894Z,18.10
2018-05-26T23:19:10.328Z,18.10
2018-05-26T23:21:40.027Z,18.00
2018-05-26T23:24:10.480Z,18.00
2018-05-26T23:26:40.186Z,17.90
2018-05-26T23:29:09.864Z,17.90
2018-05-26T23:31:40.327Z,17.90
2018-05-26T23:34:10.006Z,17.90
2018-05-26T23:36:40.470Z,17.90
2018-05-26T23:39:10.148Z,17.80
2018-05-26T23:41:40.602Z,17.90
2018-05-26T23:44:10.278Z,17.80
2018-05-26T23:46:40.734Z,17.80
2018-05-26T23:49:10.415Z,17.80
2018-05-26T23:51:40.875Z,17.80
2018-05-26T23:54:10.542Z,17.80
2018-05-26T23:56:41.004Z,17.80
2018-05-26T23:59:10.675Z,17.70
